Time;durP1;ratioP1;P1;durP2;ratioP2;P2;SDS_P1;SDS_P2;PMS_P1;PMS_P2;Temp;Humidity;BMP_temperature;BMP_pressure;BME280_temperature;BME280_humidity;BME280_pressure;Samples;Min_cycle;Max_cycle;Signal;HPM_P1;HPM_P2
2023/11/12 00:01:26;;;;;;;5.60;2.70;;;;;;;;;;103587;1291;545462;-69
2023/11/12 00:05:09;;;;;;;5.80;2.90;;;;;;;;;;103413;1292;548105;-70
2023/11/12 00:08:43;;;;;;;5.60;2.80;;;;;;;;;;103674;1293;544784;-69
2023/11/12 00:12:19;;;;;;;7.80;3.60;;;;;;;;;;103718;1294;545382;-68
2023/11/12 00:15:55;;;;;;;8.50;4.00;;;;;;;;;;104080;1283;544812;-69
2023/11/12 00:19:34;;;;;;;9.30;4.30;;;;;;;;;;103711;1289;545842;-68
2023/11/12 00:23:12;;;;;;;11.60;6.40;;;;;;;;;;103685;1292;545441;-69
2023/11/12 00:26:44;;;;;;;10.40;6.40;;;;;;;;;;104012;1289;545050;-70
2023/11/12 00:30:25;;;;;;;17.10;8.00;;;;;;;;;;103689;1289;545416;-69
2023/11/12 00:34:02;;;;;;;14.50;6.30;;;;;;;;;;103777;1292;545029;-69
2023/11/12 00:37:40;;;;;;;30.40;13.30;;;;;;;;;;103828;1289;546200;-68
2023/11/12 00:41:18;;;;;;;29.90;12.00;;;;;;;;;;103613;1290;544971;-68
2023/11/12 00:44:55;;;;;;;38.80;15.40;;;;;;;;;;103710;1289;545003;-70
2023/11/12 00:48:29;;;;;;;19.90;9.20;;;;;;;;;;103759;1291;545269;-69
2023/11/12 00:52:10;;;;;;;17.40;9.80;;;;;;;;;;103719;1292;544934;-69
2023/11/12 00:55:47;;;;;;;12.10;7.10;;;;;;;;;;103645;1292;544760;-69
2023/11/12 00:59:30;;;;;;;10.70;6.10;;;;;;;;;;103560;1292;548016;-70
2023/11/12 01:03:06;;;;;;;9.20;4.80;;;;;;;;;;103541;1293;545050;-70
2023/11/12 01:06:40;;;;;;;9.20;4.40;;;;;;;;;;103597;1295;545134;-68
2023/11/12 01:10:17;;;;;;;9.10;4.80;;;;;;;;;;103535;1292;544769;-69
2023/11/12 01:13:55;;;;;;;10.10;5.40;;;;;;;;;;103651;1292;545686;-68
2023/11/12 01:17:33;;;;;;;12.10;6.70;;;;;;;;;;103782;1289;544999;-69
2023/11/12 01:21:07;;;;;;;12.90;7.40;;;;;;;;;;103695;1289;545289;-69
2023/11/12 01:24:47;;;;;;;9.90;5.80;;;;;;;;;;103787;1289;544982;-68
2023/11/12 01:28:31;;;;;;;9.00;4.90;;;;;;;;;;103600;1288;548016;-69
2023/11/12 01:32:02;;;;;;;8.50;4.90;;;;;;;;;;103701;1292;544745;-69
2023/11/12 01:35:39;;;;;;;9.10;5.10;;;;;;;;;;103714;1290;545428;-69
2023/11/12 01:39:17;;;;;;;7.90;4.60;;;;;;;;;;103743;1291;545052;-69
2023/11/12 01:42:54;;;;;;;8.00;4.40;;;;;;;;;;103709;1294;545929;-68
2023/11/12 01:46:32;;;;;;;7.90;4.60;;;;;;;;;;103676;1292;545037;-70
2023/11/12 01:50:12;;;;;;;7.70;4.30;;;;;;;;;;103738;1289;545121;-69
2023/11/12 01:53:48;;;;;;;7.90;4.30;;;;;;;;;;103692;1292;546074;-69
2023/11/12 01:57:25;;;;;;;8.30;4.20;;;;;;;;;;103621;1292;544793;-69
2023/11/12 02:01:01;;;;;;;9.50;4.00;;;;;;;;;;103659;1292;545115;-70
2023/11/12 02:04:39;;;;;;;7.50;4.00;;;;;;;;;;103455;1298;546222;-68
2023/11/12 02:08:20;;;;;;;8.20;4.20;;;;;;;;;;104092;1286;545684;-69
2023/11/12 02:11:55;;;;;;;9.00;3.80;;;;;;;;;;103757;1290;545611;-69
2023/11/12 02:15:32;;;;;;;7.40;4.10;;;;;;;;;;103611;1289;544719;-69
2023/11/12 02:19:26;;;;;;;8.40;4.40;;;;;;;;;;103620;1289;545787;-69
2023/11/12 02:22:47;;;;;;;9.60;4.40;;;;;;;;;;103764;1301;545948;-68
2023/11/12 02:26:24;;;;;;;9.00;4.60;;;;;;;;;;104223;1285;544893;-70
2023/11/12 02:30:01;;;;;;;9.40;3.90;;;;;;;;;;103564;1290;544970;-69
2023/11/12 02:33:39;;;;;;;7.70;4.00;;;;;;;;;;103694;1292;544953;-69
2023/11/12 02:37:16;;;;;;;8.10;4.00;;;;;;;;;;103864;1289;545565;-69
2023/11/12 02:40:54;;;;;;;8.40;4.60;;;;;;;;;;103607;1291;545879;-69
2023/11/12 02:44:31;;;;;;;8.30;4.80;;;;;;;;;;103645;1292;544891;-69
2023/11/12 02:48:09;;;;;;;8.40;4.30;;;;;;;;;;103854;1288;544966;-68
2023/11/12 02:51:46;;;;;;;7.30;3.70;;;;;;;;;;103853;1289;544883;-69
2023/11/12 02:55:24;;;;;;;7.20;4.00;;;;;;;;;;103782;1288;545330;-69
2023/11/12 02:59:01;;;;;;;9.00;4.00;;;;;;;;;;103780;1291;545253;-69
2023/11/12 03:02:39;;;;;;;6.40;3.30;;;;;;;;;;104445;1286;544721;-69
2023/11/12 03:06:16;;;;;;;8.10;3.70;;;;;;;;;;103655;1291;545224;-69
2023/11/12 03:09:54;;;;;;;7.60;4.00;;;;;;;;;;103668;1289;544965;-69
2023/11/12 03:13:31;;;;;;;8.10;4.60;;;;;;;;;;103708;1302;545691;-69
2023/11/12 03:17:09;;;;;;;7.50;3.90;;;;;;;;;;103805;1289;544930;-69
2023/11/12 03:20:46;;;;;;;7.40;3.60;;;;;;;;;;103737;1289;544959;-68
2023/11/12 03:24:24;;;;;;;8.30;3.90;;;;;;;;;;103814;1292;544912;-70
2023/11/12 03:28:00;;;;;;;7.00;4.30;;;;;;;;;;103789;1289;545928;-70
2023/11/12 03:31:38;;;;;;;9.20;4.10;;;;;;;;;;103741;1293;544904;-70
2023/11/12 03:35:22;;;;;;;7.20;3.90;;;;;;;;;;103909;1289;547940;-68
2023/11/12 03:38:53;;;;;;;12.80;7.10;;;;;;;;;;103987;1289;544587;-70
2023/11/12 03:42:31;;;;;;;17.30;9.30;;;;;;;;;;103686;1292;544907;-69
2023/11/12 03:46:09;;;;;;;16.60;8.40;;;;;;;;;;103809;1289;545752;-68
2023/11/12 03:49:45;;;;;;;12.00;6.60;;;;;;;;;;103755;1288;544781;-69
2023/11/12 03:53:29;;;;;;;13.10;7.30;;;;;;;;;;103547;1291;548268;-69
2023/11/12 03:57:00;;;;;;;11.50;6.00;;;;;;;;;;103684;1289;545377;-69
2023/11/12 04:00:35;;;;;;;19.10;10.80;;;;;;;;;;103732;1291;544970;-68
2023/11/12 04:04:15;;;;;;;11.90;5.20;;;;;;;;;;104080;1288;545086;-69
2023/11/12 04:07:53;;;;;;;8.40;4.50;;;;;;;;;;103495;1291;544963;-70
2023/11/12 04:11:32;;;;;;;7.30;3.70;;;;;;;;;;104547;1283;544959;-68
2023/11/12 04:15:08;;;;;;;8.30;3.90;;;;;;;;;;103787;1289;544781;-70
2023/11/12 04:18:47;;;;;;;6.90;3.80;;;;;;;;;;103679;1289;544992;-69
2023/11/12 04:22:23;;;;;;;8.40;4.80;;;;;;;;;;104036;1292;544881;-69
2023/11/12 04:26:00;;;;;;;7.00;3.50;;;;;;;;;;103774;1292;544711;-69
2023/11/12 04:29:38;;;;;;;6.20;3.20;;;;;;;;;;103810;1291;545058;-69
2023/11/12 04:33:15;;;;;;;7.70;3.30;;;;;;;;;;103626;1292;545895;-68
2023/11/12 04:36:52;;;;;;;6.30;3.20;;;;;;;;;;103796;1295;545066;-68
2023/11/12 04:40:30;;;;;;;8.80;3.90;;;;;;;;;;103763;1289;545068;-69
2023/11/12 04:44:07;;;;;;;6.80;3.10;;;;;;;;;;103718;1292;544748;-69
2023/11/12 04:47:45;;;;;;;7.60;3.70;;;;;;;;;;103771;1292;544810;-69
2023/11/12 04:51:23;;;;;;;8.10;3.70;;;;;;;;;;103956;1285;544963;-68
2023/11/12 04:55:00;;;;;;;7.40;3.70;;;;;;;;;;103711;1289;544728;-69
2023/11/12 04:58:38;;;;;;;9.00;4.00;;;;;;;;;;103680;1291;544924;-69
2023/11/12 05:02:20;;;;;;;7.40;4.10;;;;;;;;;;103547;1291;548179;-68
2023/11/12 05:05:52;;;;;;;7.00;3.90;;;;;;;;;;103687;1290;545541;-68
2023/11/12 05:09:30;;;;;;;6.80;3.70;;;;;;;;;;103707;1289;545605;-69
2023/11/12 05:13:08;;;;;;;8.10;4.20;;;;;;;;;;103588;1296;544652;-69
2023/11/12 05:16:45;;;;;;;7.90;4.50;;;;;;;;;;103731;1291;544773;-68
2023/11/12 05:20:22;;;;;;;7.20;4.40;;;;;;;;;;103972;1285;545648;-69
2023/11/12 05:24:00;;;;;;;7.20;3.80;;;;;;;;;;103701;1295;545631;-68
2023/11/12 05:27:37;;;;;;;7.60;3.50;;;;;;;;;;103624;1289;544884;-69
2023/11/12 05:31:15;;;;;;;6.90;3.50;;;;;;;;;;103794;1291;544861;-69
2023/11/12 05:34:52;;;;;;;7.50;4.30;;;;;;;;;;103691;1289;545498;-68
2023/11/12 05:38:29;;;;;;;7.40;3.70;;;;;;;;;;103537;1292;544813;-69
2023/11/12 05:42:12;;;;;;;6.70;3.40;;;;;;;;;;103547;1291;548011;-69
2023/11/12 05:45:44;;;;;;;6.80;3.40;;;;;;;;;;103615;1290;545744;-68
2023/11/12 05:49:22;;;;;;;8.40;3.70;;;;;;;;;;103848;1288;545916;-68
2023/11/12 05:52:59;;;;;;;7.80;3.80;;;;;;;;;;103703;1292;545929;-69
2023/11/12 05:56:37;;;;;;;7.50;3.70;;;;;;;;;;103603;1289;545071;-69
2023/11/12 06:00:20;;;;;;;7.30;3.40;;;;;;;;;;104462;1288;548184;-71
2023/11/12 06:03:52;;;;;;;6.20;3.10;;;;;;;;;;103667;1292;545567;-68
2023/11/12 06:07:30;;;;;;;5.40;2.80;;;;;;;;;;104305;1283;545116;-70
2023/11/12 06:11:07;;;;;;;8.00;3.70;;;;;;;;;;103878;1288;545690;-69
2023/11/12 06:14:44;;;;;;;8.90;4.70;;;;;;;;;;103790;1292;544798;-69
2023/11/12 06:18:22;;;;;;;7.80;4.30;;;;;;;;;;103612;1292;544875;-69
2023/11/12 06:22:00;;;;;;;8.20;4.10;;;;;;;;;;103666;1290;546686;-69
2023/11/12 06:25:36;;;;;;;7.30;3.30;;;;;;;;;;103547;1291;545183;-69
2023/11/12 06:29:13;;;;;;;6.10;3.30;;;;;;;;;;103797;1289;544975;-69
2023/11/12 06:32:51;;;;;;;6.80;3.70;;;;;;;;;;103749;1292;544956;-68
2023/11/12 06:36:28;;;;;;;10.10;5.90;;;;;;;;;;103963;1287;544989;-68
2023/11/12 06:40:07;;;;;;;11.80;7.00;;;;;;;;;;103551;1292;544777;-69
2023/11/12 06:43:43;;;;;;;14.70;9.00;;;;;;;;;;103975;1290;545638;-69
2023/11/12 06:47:21;;;;;;;13.50;8.90;;;;;;;;;;103630;1289;544774;-70
2023/11/12 06:50:58;;;;;;;21.90;12.80;;;;;;;;;;103691;1288;544976;-69
2023/11/12 06:54:36;;;;;;;22.10;12.50;;;;;;;;;;103799;1294;545418;-69
2023/11/12 06:58:14;;;;;;;20.60;13.20;;;;;;;;;;103670;1294;545007;-71
2023/11/12 07:01:51;;;;;;;14.40;9.90;;;;;;;;;;103631;1290;546430;-68
2023/11/12 07:05:31;;;;;;;16.10;12.00;;;;;;;;;;103627;1289;544944;-68
2023/11/12 07:09:05;;;;;;;13.50;11.20;;;;;;;;;;103471;1292;545013;-69
2023/11/12 07:12:43;;;;;;;14.10;10.20;;;;;;;;;;103467;1298;545655;-70
2023/11/12 07:16:26;;;;;;;12.00;8.00;;;;;;;;;;103556;1293;547918;-68
2023/11/12 07:19:58;;;;;;;11.30;7.80;;;;;;;;;;103635;1292;544823;-68
2023/11/12 07:23:37;;;;;;;12.30;8.90;;;;;;;;;;104348;1289;545511;-68
2023/11/12 07:27:13;;;;;;;11.40;8.70;;;;;;;;;;103674;1291;544977;-69
2023/11/12 07:30:51;;;;;;;10.10;6.70;;;;;;;;;;103897;1293;545008;-69
2023/11/12 07:34:28;;;;;;;8.80;5.40;;;;;;;;;;103230;1297;545008;-69
2023/11/12 07:38:06;;;;;;;12.00;6.80;;;;;;;;;;103474;1290;545611;-70
2023/11/12 07:41:49;;;;;;;18.10;9.80;;;;;;;;;;103442;1291;547750;-69
2023/11/12 07:45:21;;;;;;;80.10;32.40;;;;;;;;;;103433;1294;545539;-68
2023/11/12 07:48:58;;;;;;;61.40;21.90;;;;;;;;;;103709;1289;545319;-69
2023/11/12 07:52:36;;;;;;;135.50;46.40;;;;;;;;;;103400;1298;544996;-69
2023/11/12 07:56:13;;;;;;;105.00;38.90;;;;;;;;;;103671;1290;544970;-69
2023/11/12 07:59:51;;;;;;;68.10;26.70;;;;;;;;;;103656;1288;545947;-69
2023/11/12 08:03:28;;;;;;;64.60;24.60;;;;;;;;;;103539;1295;544849;-72
2023/11/12 08:07:06;;;;;;;47.50;19.20;;;;;;;;;;103511;1291;544919;-69
2023/11/12 08:10:43;;;;;;;45.60;20.50;;;;;;;;;;103356;1295;545935;-68
2023/11/12 08:14:20;;;;;;;31.30;17.60;;;;;;;;;;103615;1292;545419;-70
2023/11/12 08:17:57;;;;;;;13.10;8.60;;;;;;;;;;103751;1288;544965;-69
2023/11/12 08:21:35;;;;;;;13.30;6.00;;;;;;;;;;103616;1292;544759;-69
2023/11/12 08:25:13;;;;;;;6.80;3.30;;;;;;;;;;103590;1292;544788;-70
2023/11/12 08:28:53;;;;;;;7.50;4.10;;;;;;;;;;103694;1291;544923;-70
2023/11/12 08:32:30;;;;;;;7.30;3.50;;;;;;;;;;103690;1295;544974;-69
2023/11/12 08:36:05;;;;;;;6.60;3.20;;;;;;;;;;103730;1291;545643;-70
2023/11/12 08:39:42;;;;;;;6.70;2.80;;;;;;;;;;103438;1295;544949;-69
2023/11/12 08:43:23;;;;;;;5.30;2.40;;;;;;;;;;103593;1292;545840;-70
2023/11/12 08:46:57;;;;;;;7.50;4.90;;;;;;;;;;103641;1289;544768;-70
2023/11/12 08:50:35;;;;;;;6.10;3.10;;;;;;;;;;103948;1287;545588;-70
2023/11/12 08:54:13;;;;;;;8.30;3.50;;;;;;;;;;104195;1287;545287;-69
2023/11/12 08:57:51;;;;;;;5.70;3.10;;;;;;;;;;104195;1285;545022;-70
2023/11/12 09:01:28;;;;;;;6.70;3.70;;;;;;;;;;103698;1288;545367;-70
2023/11/12 09:05:05;;;;;;;10.10;6.90;;;;;;;;;;103608;1292;544757;-69
2023/11/12 09:08:42;;;;;;;8.50;5.50;;;;;;;;;;103725;1292;545681;-71
2023/11/12 09:12:20;;;;;;;7.20;4.00;;;;;;;;;;103626;1306;545695;-70
2023/11/12 09:15:58;;;;;;;7.10;3.90;;;;;;;;;;103892;1289;544849;-70
2023/11/12 09:19:35;;;;;;;8.40;4.90;;;;;;;;;;103668;1294;545165;-70
2023/11/12 09:23:12;;;;;;;9.00;5.30;;;;;;;;;;104101;1289;545014;-70
2023/11/12 09:26:50;;;;;;;8.40;4.00;;;;;;;;;;104072;1289;545069;-70
2023/11/12 09:30:31;;;;;;;10.80;6.00;;;;;;;;;;103647;1291;546469;-69
2023/11/12 09:34:04;;;;;;;9.00;4.70;;;;;;;;;;103593;1302;545350;-69
2023/11/12 09:37:42;;;;;;;9.10;5.60;;;;;;;;;;103597;1291;545481;-70
2023/11/12 09:41:21;;;;;;;9.20;4.70;;;;;;;;;;104490;1289;546560;-70
2023/11/12 09:44:54;;;;;;;8.40;4.40;;;;;;;;;;103939;1291;545023;-70
2023/11/12 09:48:35;;;;;;;9.90;3.90;;;;;;;;;;103654;1292;545483;-71
2023/11/12 09:52:12;;;;;;;7.80;3.60;;;;;;;;;;103745;1290;544802;-70
2023/11/12 09:55:49;;;;;;;6.40;2.80;;;;;;;;;;103614;1289;544862;-71
2023/11/12 09:59:29;;;;;;;6.20;3.00;;;;;;;;;;103608;1293;545071;-70
2023/11/12 10:03:06;;;;;;;6.70;3.00;;;;;;;;;;103375;1295;544746;-70
2023/11/12 10:06:46;;;;;;;6.70;3.10;;;;;;;;;;103659;1292;544981;-69
2023/11/12 10:10:23;;;;;;;7.90;3.90;;;;;;;;;;103537;1295;544988;-70
2023/11/12 10:13:57;;;;;;;9.10;3.80;;;;;;;;;;103589;1292;545693;-70
2023/11/12 10:17:43;;;;;;;6.80;3.10;;;;;;;;;;103588;1292;544771;-70
2023/11/12 10:21:12;;;;;;;6.10;2.70;;;;;;;;;;103707;1289;544937;-70
2023/11/12 10:24:49;;;;;;;5.70;2.30;;;;;;;;;;103461;1297;544870;-69
2023/11/12 10:28:32;;;;;;;5.60;2.60;;;;;;;;;;104477;1282;545187;-70
2023/11/12 10:32:05;;;;;;;6.90;2.60;;;;;;;;;;103629;1295;544814;-70
2023/11/12 10:35:42;;;;;;;5.10;2.20;;;;;;;;;;103543;1292;545717;-70
2023/11/12 10:39:19;;;;;;;10.60;4.00;;;;;;;;;;103686;1292;544787;-70
2023/11/12 10:43:06;;;;;;;6.30;2.80;;;;;;;;;;103545;1291;545525;-69
2023/11/12 10:46:38;;;;;;;6.70;2.20;;;;;;;;;;103738;1289;544896;-69
2023/11/12 10:50:12;;;;;;;4.60;1.90;;;;;;;;;;104033;1289;545644;-70
2023/11/12 10:53:54;;;;;;;3.80;1.50;;;;;;;;;;103704;1292;546001;-70
2023/11/12 10:57:26;;;;;;;5.10;2.10;;;;;;;;;;103670;1290;545386;-69
2023/11/12 11:01:06;;;;;;;6.70;2.80;;;;;;;;;;103809;1291;544886;-71
2023/11/12 11:04:45;;;;;;;6.80;2.70;;;;;;;;;;103816;1301;544845;-71
2023/11/12 11:08:18;;;;;;;5.10;2.00;;;;;;;;;;103797;1289;544827;-69
2023/11/12 11:11:52;;;;;;;5.20;1.90;;;;;;;;;;103678;1289;544764;-70
2023/11/12 11:15:54;;;;;;;6.40;2.30;;;;;;;;;;103380;1305;545444;-70
2023/11/12 11:19:10;;;;;;;5.50;1.90;;;;;;;;;;103838;1289;544938;-70
2023/11/12 11:23:32;;;;;;;6.40;2.60;;;;;;;;;;103763;1294;548082;-71
2023/11/12 11:26:39;;;;;;;6.80;2.90;;;;;;;;;;104462;1285;544841;-70
2023/11/12 11:30:13;;;;;;;6.40;2.60;;;;;;;;;;103848;1288;544978;-71
2023/11/12 11:33:48;;;;;;;6.10;2.70;;;;;;;;;;103567;1293;544804;-70
2023/11/12 11:37:19;;;;;;;7.00;2.50;;;;;;;;;;103582;1292;544785;-71
2023/11/12 11:40:56;;;;;;;6.30;2.00;;;;;;;;;;104614;1281;545399;-71
2023/11/12 11:48:10;;;;;;;6.30;2.40;;;;;;;;;;103568;1292;545102;-71
2023/11/12 11:51:48;;;;;;;5.10;2.20;;;;;;;;;;103651;1291;545119;-70
2023/11/12 11:55:26;;;;;;;7.40;2.10;;;;;;;;;;103833;1293;544759;-73
2023/11/12 11:59:02;;;;;;;5.00;1.90;;;;;;;;;;104580;1283;545148;-72
2023/11/12 12:02:41;;;;;;;4.30;1.80;;;;;;;;;;103784;1290;545806;-71
2023/11/12 12:06:19;;;;;;;5.20;2.10;;;;;;;;;;103793;1290;544644;-71
2023/11/12 12:09:56;;;;;;;7.30;3.00;;;;;;;;;;103782;1291;545376;-71
2023/11/12 12:13:33;;;;;;;9.50;3.70;;;;;;;;;;104107;1286;545050;-70
2023/11/12 12:17:10;;;;;;;7.50;2.60;;;;;;;;;;103815;1289;544825;-71
2023/11/12 12:20:48;;;;;;;8.30;3.20;;;;;;;;;;103904;1288;545008;-71
2023/11/12 12:24:25;;;;;;;8.30;3.50;;;;;;;;;;103758;1294;545632;-71
2023/11/12 12:27:59;;;;;;;12.00;4.70;;;;;;;;;;103722;1292;545059;-70
2023/11/12 12:31:41;;;;;;;8.00;2.50;;;;;;;;;;103659;1289;544709;-72
2023/11/12 12:35:24;;;;;;;7.60;2.30;;;;;;;;;;103659;1306;545536;-72
2023/11/12 12:39:15;;;;;;;9.10;3.60;;;;;;;;;;103741;1292;547797;-70
2023/11/12 12:42:34;;;;;;;10.40;4.00;;;;;;;;;;103982;1289;545054;-71
2023/11/12 12:46:10;;;;;;;7.60;2.80;;;;;;;;;;103724;1291;545918;-71
2023/11/12 12:49:48;;;;;;;9.30;4.00;;;;;;;;;;103874;1290;544714;-70
2023/11/12 12:53:31;;;;;;;8.80;4.00;;;;;;;;;;103545;1292;548070;-71
2023/11/12 12:57:03;;;;;;;8.10;2.90;;;;;;;;;;103755;1292;545492;-72
2023/11/12 13:00:40;;;;;;;7.70;3.40;;;;;;;;;;103698;1289;545049;-71
2023/11/12 13:04:17;;;;;;;8.30;4.70;;;;;;;;;;103811;1289;545622;-70
2023/11/12 13:07:55;;;;;;;10.60;7.90;;;;;;;;;;103709;1295;544791;-72
2023/11/12 13:11:32;;;;;;;9.80;4.70;;;;;;;;;;104083;1289;544821;-71
2023/11/12 13:15:09;;;;;;;6.30;2.70;;;;;;;;;;104071;1292;545801;-72
2023/11/12 13:18:47;;;;;;;6.90;2.90;;;;;;;;;;104059;1289;545170;-72
2023/11/12 13:22:25;;;;;;;10.90;4.30;;;;;;;;;;103811;1290;544909;-72
2023/11/12 13:26:02;;;;;;;11.50;6.50;;;;;;;;;;103726;1302;545761;-69
2023/11/12 13:29:40;;;;;;;15.90;9.80;;;;;;;;;;103885;1292;545021;-70
2023/11/12 13:33:18;;;;;;;13.80;8.20;;;;;;;;;;103796;1292;544734;-71
2023/11/12 13:36:55;;;;;;;12.20;5.90;;;;;;;;;;103621;1291;545448;-71
2023/11/12 13:40:33;;;;;;;10.60;5.50;;;;;;;;;;104099;1286;546218;-73
2023/11/12 13:44:09;;;;;;;9.20;4.50;;;;;;;;;;103668;1291;544746;-71
2023/11/12 13:47:47;;;;;;;8.30;4.20;;;;;;;;;;104033;1289;545772;-70
2023/11/12 13:51:31;;;;;;;25.70;12.20;;;;;;;;;;103978;1288;548024;-70
2023/11/12 13:55:02;;;;;;;31.20;15.00;;;;;;;;;;103826;1292;544860;-71
2023/11/12 13:58:42;;;;;;;29.00;14.10;;;;;;;;;;103729;1289;545754;-71
2023/11/12 14:02:22;;;;;;;38.60;17.10;;;;;;;;;;103604;1292;547797;-71
2023/11/12 14:05:50;;;;;;;37.10;18.30;;;;;;;;;;103652;1293;545319;-71
2023/11/12 14:09:34;;;;;;;33.60;17.80;;;;;;;;;;103985;1289;544931;-71
2023/11/12 14:13:09;;;;;;;19.50;10.70;;;;;;;;;;103763;1291;544999;-72
2023/11/12 14:16:52;;;;;;;18.70;10.40;;;;;;;;;;103757;1289;548031;-71
2023/11/12 14:20:29;;;;;;;21.20;10.50;;;;;;;;;;103860;1289;546520;-70
2023/11/12 14:24:01;;;;;;;21.80;10.60;;;;;;;;;;103821;1293;544727;-72
2023/11/12 14:27:40;;;;;;;15.80;6.90;;;;;;;;;;103815;1289;544883;-71
2023/11/12 14:31:17;;;;;;;22.00;10.90;;;;;;;;;;103481;1294;544894;-72
2023/11/12 14:34:54;;;;;;;20.50;10.00;;;;;;;;;;104455;1284;544949;-71
2023/11/12 14:38:50;;;;;;;22.40;12.00;;;;;;;;;;103775;1295;547983;-71
2023/11/12 14:42:09;;;;;;;15.60;8.40;;;;;;;;;;103628;1301;545611;-71
2023/11/12 14:45:47;;;;;;;15.30;7.40;;;;;;;;;;103819;1293;544787;-72
2023/11/12 14:49:20;;;;;;;15.80;8.10;;;;;;;;;;103933;1289;545050;-73
2023/11/12 14:53:03;;;;;;;11.70;5.70;;;;;;;;;;104233;1287;546221;-71
2023/11/12 14:56:44;;;;;;;49.10;18.70;;;;;;;;;;103554;1297;548165;-71
2023/11/12 15:00:25;;;;;;;42.60;18.60;;;;;;;;;;103860;1292;545178;-71
2023/11/12 15:03:54;;;;;;;38.20;19.00;;;;;;;;;;103858;1288;545450;-72
2023/11/12 15:07:32;;;;;;;19.60;10.40;;;;;;;;;;103437;1297;546038;-72
2023/11/12 15:11:10;;;;;;;14.10;7.50;;;;;;;;;;104132;1287;545068;-71
2023/11/12 15:14:43;;;;;;;22.50;11.40;;;;;;;;;;103780;1289;546003;-72
2023/11/12 15:18:23;;;;;;;22.50;13.10;;;;;;;;;;103773;1291;544825;-71
2023/11/12 15:22:00;;;;;;;21.70;11.60;;;;;;;;;;103503;1297;545504;-71
2023/11/12 15:25:40;;;;;;;17.70;9.90;;;;;;;;;;104038;1288;544804;-72
2023/11/12 15:29:16;;;;;;;17.20;9.10;;;;;;;;;;103776;1291;544846;-71
2023/11/12 15:32:53;;;;;;;16.10;9.00;;;;;;;;;;103740;1292;545068;-72
2023/11/12 15:36:33;;;;;;;19.80;11.70;;;;;;;;;;104466;1285;545700;-71
2023/11/12 15:40:18;;;;;;;22.60;14.20;;;;;;;;;;103893;1289;547144;-72
2023/11/12 15:43:50;;;;;;;22.90;14.40;;;;;;;;;;104671;1284;544709;-71
2023/11/12 15:47:25;;;;;;;29.80;19.70;;;;;;;;;;103770;1292;545952;-71
2023/11/12 15:51:01;;;;;;;43.70;24.90;;;;;;;;;;103823;1291;545921;-71
2023/11/12 15:54:45;;;;;;;49.40;27.40;;;;;;;;;;103816;1290;544693;-71
2023/11/12 15:58:15;;;;;;;48.80;29.60;;;;;;;;;;104013;1285;544825;-71
2023/11/12 16:01:51;;;;;;;40.00;24.80;;;;;;;;;;103851;1289;546170;-72
2023/11/12 16:05:28;;;;;;;40.60;25.90;;;;;;;;;;103814;1293;545376;-72
2023/11/12 16:09:08;;;;;;;35.70;22.00;;;;;;;;;;104122;1286;544943;-72
2023/11/12 16:12:47;;;;;;;34.80;22.00;;;;;;;;;;103876;1291;544792;-71
2023/11/12 16:16:19;;;;;;;37.70;23.00;;;;;;;;;;103868;1292;544945;-71
2023/11/12 16:20:00;;;;;;;57.40;33.60;;;;;;;;;;104360;1286;545018;-71
2023/11/12 16:23:43;;;;;;;61.10;37.30;;;;;;;;;;103634;1292;545455;-72
2023/11/12 16:27:15;;;;;;;67.50;39.10;;;;;;;;;;103793;1292;545073;-71
2023/11/12 16:30:53;;;;;;;68.20;35.80;;;;;;;;;;103760;1289;545192;-71
2023/11/12 16:34:32;;;;;;;69.70;34.50;;;;;;;;;;103747;1291;545195;-71
2023/11/12 16:38:07;;;;;;;50.20;27.10;;;;;;;;;;104057;1288;544936;-71
2023/11/12 16:41:45;;;;;;;34.40;20.90;;;;;;;;;;103872;1292;545047;-71
2023/11/12 16:45:43;;;;;;;40.40;28.10;;;;;;;;;;103696;1294;549407;-71
2023/11/12 16:49:00;;;;;;;42.80;30.30;;;;;;;;;;103740;1289;545499;-73
2023/11/12 16:52:38;;;;;;;28.40;16.30;;;;;;;;;;103787;1291;544815;-72
2023/11/12 16:56:15;;;;;;;25.80;14.70;;;;;;;;;;103749;1292;545258;-72
2023/11/12 16:59:53;;;;;;;24.00;15.20;;;;;;;;;;103507;1301;544905;-72
2023/11/12 17:03:36;;;;;;;33.10;19.20;;;;;;;;;;103289;1295;546302;-72
2023/11/12 17:07:10;;;;;;;23.00;12.50;;;;;;;;;;103698;1295;545141;-71
2023/11/12 17:10:41;;;;;;;21.10;11.00;;;;;;;;;;103633;1292;545030;-71
2023/11/12 17:14:22;;;;;;;23.80;11.60;;;;;;;;;;103837;1290;545767;-71
2023/11/12 17:18:00;;;;;;;27.10;13.90;;;;;;;;;;104313;1282;545867;-71
2023/11/12 17:21:37;;;;;;;24.90;13.20;;;;;;;;;;103784;1292;545385;-70
2023/11/12 17:25:15;;;;;;;36.70;21.00;;;;;;;;;;103767;1291;544714;-71
2023/11/12 17:28:52;;;;;;;17.50;9.70;;;;;;;;;;103590;1296;544955;-71
2023/11/12 17:32:30;;;;;;;16.90;8.90;;;;;;;;;;103797;1292;545153;-72
2023/11/12 17:36:27;;;;;;;20.70;11.60;;;;;;;;;;103636;1294;548010;-71
2023/11/12 17:39:44;;;;;;;27.00;17.00;;;;;;;;;;103803;1290;546084;-71
2023/11/12 17:43:22;;;;;;;19.10;12.40;;;;;;;;;;103840;1291;545655;-72
2023/11/12 17:46:59;;;;;;;26.20;13.50;;;;;;;;;;104274;1283;545146;-71
2023/11/12 17:50:37;;;;;;;13.50;7.90;;;;;;;;;;103604;1291;544717;-71
2023/11/12 17:54:15;;;;;;;14.10;8.30;;;;;;;;;;103748;1290;545166;-72
2023/11/12 17:57:54;;;;;;;12.90;8.30;;;;;;;;;;103788;1289;544964;-71
2023/11/12 18:01:50;;;;;;;13.50;8.10;;;;;;;;;;103689;1296;547798;-71
2023/11/12 18:05:07;;;;;;;12.00;7.00;;;;;;;;;;103839;1290;544725;-71
2023/11/12 18:08:45;;;;;;;10.50;6.00;;;;;;;;;;103768;1293;544774;-71
2023/11/12 18:12:27;;;;;;;10.70;6.00;;;;;;;;;;103663;1291;544986;-72
2023/11/12 18:16:21;;;;;;;12.10;6.00;;;;;;;;;;103488;1297;548611;-72
2023/11/12 18:19:37;;;;;;;10.50;6.40;;;;;;;;;;104079;1292;544830;-71
2023/11/12 18:23:22;;;;;;;15.40;7.90;;;;;;;;;;103569;1294;548692;-71
2023/11/12 18:27:11;;;;;;;15.60;8.70;;;;;;;;;;103735;1291;548126;-71
2023/11/12 18:30:31;;;;;;;16.70;9.00;;;;;;;;;;104051;1289;544968;-71
2023/11/12 18:34:10;;;;;;;22.00;13.00;;;;;;;;;;103496;1291;545522;-71
2023/11/12 18:37:44;;;;;;;25.00;14.10;;;;;;;;;;103690;1294;545966;-70
2023/11/12 18:41:22;;;;;;;36.20;18.00;;;;;;;;;;103589;1292;544846;-71
2023/11/12 18:45:19;;;;;;;51.90;26.90;;;;;;;;;;103764;1292;547900;-72
2023/11/12 18:48:39;;;;;;;57.90;33.70;;;;;;;;;;103673;1295;545088;-71
2023/11/12 18:52:15;;;;;;;52.10;36.30;;;;;;;;;;103779;1292;546276;-72
2023/11/12 18:55:57;;;;;;;26.20;20.00;;;;;;;;;;103633;1291;547784;-72
2023/11/12 18:59:31;;;;;;;22.90;15.10;;;;;;;;;;103770;1289;544921;-71
2023/11/12 19:03:08;;;;;;;24.90;18.70;;;;;;;;;;103963;1290;545238;-71
2023/11/12 19:06:46;;;;;;;15.70;12.10;;;;;;;;;;103736;1292;544968;-71
2023/11/12 19:10:22;;;;;;;16.80;11.50;;;;;;;;;;103949;1289;544980;-71
2023/11/12 19:14:01;;;;;;;16.30;12.00;;;;;;;;;;103426;1295;545381;-72
2023/11/12 19:17:49;;;;;;;16.30;11.70;;;;;;;;;;103900;1286;544786;-71
2023/11/12 19:21:14;;;;;;;18.00;12.20;;;;;;;;;;104033;1290;544988;-71
2023/11/12 19:24:55;;;;;;;21.20;16.50;;;;;;;;;;103853;1288;546107;-72
2023/11/12 19:28:30;;;;;;;21.90;15.40;;;;;;;;;;103788;1292;545033;-72
2023/11/12 19:32:11;;;;;;;17.90;12.70;;;;;;;;;;103606;1293;545582;-71
2023/11/12 19:35:43;;;;;;;15.20;10.60;;;;;;;;;;103958;1295;545980;-70
2023/11/12 19:39:22;;;;;;;13.50;9.30;;;;;;;;;;103559;1298;544841;-71
2023/11/12 19:43:00;;;;;;;15.10;10.90;;;;;;;;;;103797;1289;546846;-72
2023/11/12 19:46:46;;;;;;;16.90;12.10;;;;;;;;;;103892;1289;545515;-72
2023/11/12 19:50:16;;;;;;;28.60;23.00;;;;;;;;;;103833;1295;547885;-71
2023/11/12 19:53:47;;;;;;;29.60;18.20;;;;;;;;;;103870;1289;545386;-71
2023/11/12 19:57:30;;;;;;;26.10;16.50;;;;;;;;;;103537;1290;545561;-71
2023/11/12 20:01:07;;;;;;;21.80;14.70;;;;;;;;;;104021;1288;544952;-71
2023/11/12 20:04:51;;;;;;;22.30;13.70;;;;;;;;;;103712;1291;547763;-71
2023/11/12 20:08:22;;;;;;;20.70;13.90;;;;;;;;;;104145;1289;544988;-71
2023/11/12 20:12:00;;;;;;;19.20;12.80;;;;;;;;;;103636;1292;544761;-70
2023/11/12 20:15:36;;;;;;;18.10;11.80;;;;;;;;;;103808;1288;545322;-71
2023/11/12 20:19:19;;;;;;;22.90;13.40;;;;;;;;;;103710;1292;544949;-71
2023/11/12 20:22:51;;;;;;;40.20;24.30;;;;;;;;;;103752;1291;545573;-71
2023/11/12 20:26:51;;;;;;;27.10;18.00;;;;;;;;;;103847;1293;545860;-72
2023/11/12 20:30:11;;;;;;;23.70;16.20;;;;;;;;;;104066;1291;545257;-71
2023/11/12 20:33:44;;;;;;;23.60;14.40;;;;;;;;;;104307;1291;544991;-72
2023/11/12 20:37:17;;;;;;;25.10;15.50;;;;;;;;;;104067;1285;544997;-71
2023/11/12 20:41:00;;;;;;;29.60;17.50;;;;;;;;;;103567;1289;545260;-71
2023/11/12 20:44:37;;;;;;;32.40;20.90;;;;;;;;;;103731;1295;545507;-71
2023/11/12 20:48:16;;;;;;;33.30;21.30;;;;;;;;;;103896;1291;545524;-71
2023/11/12 20:51:46;;;;;;;31.30;19.10;;;;;;;;;;103788;1290;544843;-71